Latest Coastal Weather Observations for Albany Airport

IDW60701

Issued at 3:05 pm WST Wednesday 1 October 2014 (issued every 10 minutes, with the page automatically refreshed every 10 minutes)

About coastal observations | Map of coastal stations | Coastal observations for WA | Marine services | Other Formats
Station Details ID: 009999 Name: ALBANY AIRPORT Lat: -34.94 Lon: 117.82 Height: 68.4 m
Data from the previous 72 hours. | See also: Recent months at Albany Airport
Date/Time
WST
Temp

°C
Wind Pressure Rain
since 9am
mm
Weather Cloud Vis
km
Sea
Height
m
Swell
Dir
 
Speed
knots
Gust
knots
hPa Trend Height
m
Period
s
Dir
01/03:00pm 21.5 E 13 17 1019.4 F 0.0 Haze Mostly clear 15 - - - -
01/02:30pm 21.5 E 13 16 1019.6 - 0.8 - Mostly clear 10 - - - -
01/02:00pm 21.9 E 13 16 1019.8 - 0.8 - Mostly clear 10 - - - -
01/01:30pm 22.6 E 11 15 1020.2 - 0.8 - Mostly clear 10 - - - -
01/01:00pm 22.4 E 11 16 1020.7 - 0.0 - - 10 - - - -
01/12:30pm 21.7 E 10 15 1021.3 - 0.8 - - 10 - - - -
01/12:00pm 21.8 E 10 14 1021.9 F 0.0 Fine Clear 25 - - - -
01/11:30am 21.0 E 9 15 1022.3 - 0.0 - Mostly clear 10 - - - -
01/11:00am 20.7 ENE 11 15 1022.5 - 0.0 - - 10 - - - -
01/10:30am 20.0 ENE 10 14 1023.0 - 0.8 - Mostly clear 10 - - - -
01/10:00am 19.1 ENE 12 16 1023.6 - 0.0 - Mostly clear 10 - - - -
01/09:30am 17.8 ENE 14 18 1023.9 - 0.0 - Mostly clear 10 - - - -
01/09:00am 16.9 NE 10 13 1024.3 F 0.2 Haze Mostly clear 20 - - - -
01/08:30am 15.6 ENE 9 13 1024.6 - 0.2 - Partly cloudy 10 - - - -
01/08:00am 14.0 ENE 9 12 1024.5 - 0.2 - Mostly clear 10 - - - -
01/07:30am 12.4 ENE 11 14 1024.4 - 0.2 - Mostly clear 10 - - - -
01/07:00am 10.7 ENE 8 10 1024.7 - 0.2 - Mostly cloudy 10 - - - -
01/06:30am 9.6 NE 6 7 1024.9 - 0.2 - Mostly clear 9 - - - -
01/06:00am 8.5 ENE 6 8 1024.7 F 0.2 Distant fog Mostly clear 15 - - - -
01/05:30am 8.0 ENE 6 6 1024.6 - 0.2 - - 9 - - - -
01/05:00am 7.5 ENE 6 7 1024.4 - 0.2 - - 8 - - - -
01/04:30am 7.4 ENE 5 6 1024.4 - 0.2 - - 9 - - - -
01/04:00am 7.8 ENE 6 6 1024.5 - 0.2 - - 9 - - - -
01/03:30am 8.1 ENE 4 5 1024.6 - 0.2 - - 10 - - - -
01/03:00am 7.9 ENE 4 5 1024.7 - 0.2 - - 10 - - - -
01/02:30am 8.3 E 5 5 1024.6 - 0.2 - - 10 - - - -
01/02:00am 8.6 NE 3 4 1024.9 - 0.2 - - 8 - - - -
01/01:30am 8.5 ENE 5 5 1024.8 - 0.2 - - 10 - - - -
01/01:00am 8.7 ENE 4 5 1025.0 - 0.2 - - 10 - - - -
01/12:30am 9.2 E 4 5 1025.1 - 0.2 - - 10 - - - -
01/12:00am 9.3 E 4 5 1025.3 - 0.2 - - 10 - - - -
 
Date/Time
WST
Temp

°C
Wind Pressure Rain
since 9am
mm
Weather Cloud Vis
km
Sea
Height
m
Swell
Dir
 
Speed
knots
Gust
knots
hPa Trend Height
m
Period
s
Dir
30/11:30pm 9.3 ENE 5 6 1025.1 - 0.2 - - 10 - - - -
30/11:00pm 9.7 ENE 5 6 1025.1 - 0.2 - - 10 - - - -
30/10:30pm 9.9 ENE 4 5 1025.1 - 0.2 - - 10 - - - -
30/10:00pm 10.4 ENE 4 5 1025.2 - 0.2 - Partly cloudy 10 - - - -
30/09:30pm 9.9 ENE 5 6 1025.3 - 0.2 - Partly cloudy 10 - - - -
30/09:00pm 10.9 ENE 6 7 1025.4 - 0.2 - - 10 - - - -
30/08:30pm 11.2 ENE 5 7 1025.2 - 0.2 - - 10 - - - -
30/08:00pm 11.5 E 5 7 1024.9 - 0.2 - - 10 - - - -
30/07:30pm 11.4 E 5 7 1024.8 - 0.2 - - 10 - - - -
30/07:00pm 11.6 ESE 5 6 1024.4 - 0.2 - - 10 - - - -
30/06:30pm 12.4 ESE 5 6 1024.2 - 0.2 - - 10 - - - -
30/06:00pm 13.8 ESE 7 8 1024.2 - 0.2 - - 10 - - - -
30/05:30pm 15.1 ESE 7 9 1024.0 - 0.2 - - 10 - - - -
30/05:00pm 15.7 ESE 9 12 1023.8 - 0.2 - Mostly clear 10 - - - -
30/04:30pm 16.9 ESE 8 12 1023.5 - 0.2 - Mostly clear 10 - - - -
30/04:00pm 17.1 S 6 9 1023.5 - 0.2 - Mostly clear 10 - - - -
30/03:30pm 17.6 S 7 10 1023.4 - 0.2 - Mostly clear 10 - - - -
30/03:00pm 17.3 SSE 6 9 1023.3 R 0.2 Haze Partly cloudy 25 - - - -
30/02:30pm 17.3 SSW 7 10 1023.1 - 0.2 - Mostly clear 10 - - - -
30/02:00pm 16.9 SSW 6 8 1023.3 - 0.2 - Partly cloudy 10 - - - -
30/01:30pm 17.5 S 7 10 1023.3 - 0.2 - Partly cloudy 10 - - - -
30/01:00pm 17.6 S 6 8 1023.6 - 0.2 - Partly cloudy 10 - - - -
30/12:30pm 16.7 SW 7 9 1023.8 - 0.2 - Mostly cloudy 10 - - - -
30/12:00pm 16.9 SSW 5 8 1024.0 R 0.2 Fine Mostly cloudy 30 - - - -
30/11:30am 17.7 WSW 4 7 1023.7 - 0.2 - Partly cloudy 10 - - - -
30/11:00am 16.7 ESE 3 5 1023.8 - 0.0 - Mostly clear 10 - - - -
30/10:30am 16.1 SSW 3 5 1024.0 - 0.0 - Partly cloudy 10 - - - -
30/10:00am 16.2 WNW 3 5 1024.0 - 0.0 - Mostly clear 10 - - - -
30/09:30am 15.3 NW 4 7 1023.9 - 0.0 - Partly cloudy 10 - - - -
30/09:00am 14.9 WNW 5 7 1023.7 R 1.6 Drizzle Mostly cloudy 20 - - - -
30/08:30am 14.1 WNW 5 7 1023.4 - 1.6 - Mostly clear 10 - - - -
30/08:00am 13.6 NW 4 5 1023.1 - 1.6 - Mostly clear 10 - - - -
30/07:30am 13.2 N 4 6 1022.7 - 1.6 - Mostly clear 10 - - - -
30/07:00am 12.6 NNW 3 4 1022.4 - 1.6 - Partly cloudy 10 - - - -
30/06:30am 12.0 CALM 0 3 1022.2 - 1.6 Drizzle Partly cloudy 9 - - - -
30/06:00am 11.8 NNW 4 6 1022.1 R 1.6 Drizzle Mostly cloudy 20 - - - -
30/05:30am 11.5 WNW 5 6 1021.4 - 1.6 - Partly cloudy 10 - - - -
30/05:00am 11.6 NW 6 7 1021.1 - 1.6 - Cloudy 10 - - - -
30/04:30am 11.8 NW 6 6 1020.7 - 1.6 - Cloudy 10 - - - -
30/04:00am 11.7 NW 5 6 1020.3 - 1.6 - Cloudy 10 - - - -
30/03:30am 11.7 WNW 6 7 1020.1 - 1.6 - Partly cloudy 10 - - - -
30/03:00am 11.7 NW 6 7 1020.0 - 1.6 - Cloudy 10 - - - -
30/02:30am 11.9 WNW 5 6 1019.6 - 1.6 - Partly cloudy 10 - - - -
30/02:26am 11.9 W 5 7 1019.7 - 1.6 - Partly cloudy 10 - - - -
30/02:10am 12.0 W 6 8 1019.7 - 1.4 - Partly cloudy 6 - - - -
30/02:00am 11.8 W 6 8 1019.7 - 1.4 - Partly cloudy 10 - - - -
30/01:30am 12.1 W 7 9 1019.6 - 1.4 - Partly cloudy 10 - - - -
30/01:00am 11.9 W 8 11 1019.4 - 1.4 - Partly cloudy 10 - - - -
30/12:30am 12.1 WSW 8 11 1019.4 - 1.4 - Partly cloudy 10 - - - -
30/12:22am 12.1 WSW 8 10 1019.4 - 1.4 - Partly cloudy 10 - - - -
30/12:00am 12.2 W 10 15 1019.7 - 1.4 - Cloudy 3 - - - -
 
Date/Time
WST
Temp

°C
Wind Pressure Rain
since 9am
mm
Weather Cloud Vis
km
Sea
Height
m
Swell
Dir
 
Speed
knots
Gust
knots
hPa Trend Height
m
Period
s
Dir
29/11:45pm 12.3 WNW 9 11 1019.4 - 1.2 - Partly cloudy 6 - - - -
29/11:33pm 12.2 W 8 9 1019.3 - 1.2 - Partly cloudy 10 - - - -
29/11:30pm 12.2 W 8 10 1019.2 - 1.2 - Partly cloudy 10 - - - -
29/11:09pm 12.4 WNW 9 12 1019.3 - 1.2 - Partly cloudy 6 - - - -
29/11:00pm 12.4 W 8 11 1019.3 - 1.2 - Partly cloudy 10 - - - -
29/10:30pm 12.4 WNW 8 9 1019.0 - 1.2 - Cloudy 10 - - - -
29/10:00pm 12.6 W 8 11 1019.0 - 1.2 - Partly cloudy 10 - - - -
29/09:30pm 12.5 WNW 9 12 1018.7 - 1.2 - Partly cloudy 10 - - - -
29/09:00pm 12.4 WNW 9 13 1019.1 - 1.2 - Cloudy 10 - - - -
29/08:30pm 12.6 W 9 11 1018.7 - 1.2 - Partly cloudy 10 - - - -
29/08:20pm 12.6 W 9 11 1018.7 - 1.2 - Partly cloudy 10 - - - -
29/08:08pm 12.8 W 10 14 1018.6 - 1.2 - Partly cloudy 10 - - - -
29/08:00pm 12.9 WSW 11 14 1018.5 - 1.2 - Partly cloudy 10 - - - -
29/07:46pm 13.0 W 12 20 1018.4 - 0.8 - Partly cloudy 10 - - - -
29/07:35pm 13.1 W 10 12 1018.3 - 0.6 - Partly cloudy 4 - - - -
29/07:30pm 13.1 W 11 14 1018.3 - 0.6 - Partly cloudy 6 - - - -
29/07:21pm 13.1 W 13 20 1018.0 - 0.4 - Partly cloudy 8 - - - -
29/07:10pm 13.3 W 10 14 1018.3 - 0.4 - Partly cloudy 5 - - - -
29/07:09pm 13.4 W 10 14 1018.3 - 0.4 - Partly cloudy 6 - - - -
29/07:06pm 13.4 W 11 14 1018.1 - 0.4 - Partly cloudy 10 - - - -
29/07:00pm 13.4 W 11 14 1017.9 - 0.4 - Partly cloudy 8 - - - -
29/06:46pm 13.9 W 13 21 1017.5 - 0.2 - Partly cloudy 5 - - - -
29/06:30pm 14.8 WSW 13 18 1017.0 - 0.2 - Partly cloudy 10 - - - -
29/06:00pm 15.2 W 15 21 1016.5 - 0.2 - Cloudy 10 - - - -
29/05:30pm 16.3 W 14 20 1016.0 - 0.2 - Partly cloudy 10 - - - -
29/05:00pm 16.5 W 12 16 1015.4 - 0.2 - Partly cloudy 10 - - - -
29/04:30pm 17.0 W 17 26 1015.0 - 0.2 - Partly cloudy 10 - - - -
29/04:00pm 18.0 WSW 13 21 1014.4 - 0.2 - Partly cloudy 10 - - - -
29/03:30pm 18.3 W 17 23 1014.1 - 0.2 - Partly cloudy 10 - - - -
29/03:00pm 18.6 W 16 23 1014.0 R 0.2 Fine Mostly cloudy 30 - - - -
29/02:30pm 18.6 WSW 17 25 1013.8 - 0.2 - Partly cloudy 10 - - - -
29/02:00pm 18.6 W 18 25 1013.5 - 0.2 - Partly cloudy 10 - - - -
29/01:30pm 17.8 WSW 16 22 1013.6 - 0.2 - Partly cloudy 10 - - - -
29/01:00pm 18.5 WSW 16 23 1013.6 - 0.2 - Partly cloudy 10 - - - -
29/12:30pm 18.1 W 18 25 1013.5 - 0.0 - Partly cloudy 10 - - - -
29/12:00pm 18.4 WSW 16 23 1013.7 R 0.0 Fine Mostly cloudy 30 - - - -
29/11:30am 18.0 WSW 17 24 1013.5 - 0.0 - Partly cloudy 10 - - - -
29/11:00am 17.3 W 15 20 1013.3 - 0.0 - Partly cloudy 10 - - - -
29/10:30am 17.4 W 18 23 1013.4 - 0.0 - Partly cloudy 10 - - - -
29/10:17am 17.5 W 16 26 1013.4 - 0.0 - Partly cloudy 10 - - - -
29/10:00am 16.9 W 16 22 1013.7 - 0.0 - Partly cloudy 10 - - - -
29/09:47am 16.2 W 15 25 1013.7 - 0.0 - Partly cloudy 10 - - - -
29/09:30am 16.4 W 15 21 1013.6 - 0.0 - Partly cloudy 10 - - - -
29/09:00am 15.9 W 14 20 1013.6 R 1.6 Fine Mostly cloudy 25 - - - -
29/08:28am 14.6 WNW 14 17 1013.3 - 1.6 - Partly cloudy 10 - - - -
29/08:00am 13.9 WNW 14 18 1013.2 - 1.6 - Mostly clear 6 - - - -
29/07:30am 13.4 WNW 11 15 1012.9 - 1.6 Showers Mostly clear 9 - - - -
29/07:00am 13.2 WNW 12 16 1012.7 - 1.6 - Mostly clear 10 - - - -
29/06:30am 12.5 NW 11 17 1012.4 - 1.6 - Mostly clear 10 - - - -
29/06:00am 12.0 NW 10 13 1012.2 F 1.6 Fine Mostly cloudy 30 - - - -
29/05:30am 12.3 NW 11 15 1011.7 - 1.6 - Partly cloudy 10 - - - -
29/05:00am 12.6 WNW 10 13 1011.6 - 1.6 - Partly cloudy 10 - - - -
29/04:30am 12.2 WNW 9 14 1011.3 - 1.6 - Partly cloudy 10 - - - -
29/04:00am 12.3 NW 11 14 1011.4 - 1.6 - Partly cloudy 10 - - - -
29/03:30am 12.5 NW 12 15 1011.4 - 1.6 - Partly cloudy 10 - - - -
29/03:00am 12.4 NW 11 15 1011.9 - 1.6 - Partly cloudy 10 - - - -
29/02:30am 12.8 WNW 13 16 1012.0 - 1.6 - Partly cloudy 10 - - - -
29/02:00am 12.6 WNW 11 14 1012.1 - 1.6 - Partly cloudy 10 - - - -
29/01:30am 12.4 NW 11 15 1012.1 - 1.6 - Partly cloudy 10 - - - -
29/01:00am 12.6 NW 11 14 1012.5 - 1.6 - Partly cloudy 10 - - - -
29/12:30am 12.8 WNW 12 15 1012.6 - 1.6 - Partly cloudy 10 - - - -
29/12:00am 12.5 WNW 10 12 1012.7 - 1.6 - Mostly clear 10 - - - -
 
Date/Time
WST
Temp

°C
Wind Pressure Rain
since 9am
mm
Weather Cloud Vis
km
Sea
Height
m
Swell
Dir
 
Speed
knots
Gust
knots
hPa Trend Height
m
Period
s
Dir
28/11:30pm 12.6 WNW 9 12 1012.8 - 1.6 - Partly cloudy 10 - - - -
28/11:00pm 12.9 WNW 10 13 1013.0 - 1.6 - Partly cloudy 10 - - - -
28/10:30pm 12.6 NW 9 12 1013.1 - 1.6 - - 10 - - - -
28/10:00pm 12.0 NW 7 8 1013.3 - 1.6 - - 10 - - - -
28/09:30pm 12.6 NW 7 9 1013.5 - 1.6 - - 10 - - - -
28/09:00pm 12.5 NNW 6 8 1013.7 - 1.6 - Mostly clear 10 - - - -
28/08:30pm 13.3 WNW 7 9 1014.0 - 1.6 - Partly cloudy 10 - - - -
28/08:20pm 13.6 W 7 10 1014.0 - 1.6 - Partly cloudy 10 - - - -
28/08:00pm 14.0 NW 12 15 1014.1 - 1.6 - Partly cloudy 4 - - - -
28/07:49pm 14.6 WNW 7 13 1014.0 - 1.4 - Partly cloudy 6 - - - -
28/07:30pm 14.9 NNW 5 6 1013.6 - 1.4 - Partly cloudy 10 - - - -
28/07:00pm 14.4 NW 5 6 1013.2 - 1.4 - Cloudy 10 - - - -
28/06:30pm 15.7 W 5 6 1013.1 - 1.4 - Partly cloudy 10 - - - -
28/06:00pm 16.3 W 7 10 1012.9 - 1.4 - Cloudy 10 - - - -
28/05:30pm 16.7 W 8 11 1012.6 - 1.4 - Partly cloudy 10 - - - -
28/05:00pm 17.0 W 10 14 1012.5 - 1.4 - Mostly clear 10 - - - -
28/04:30pm 17.0 WSW 11 15 1012.3 - 1.4 - Mostly clear 10 - - - -
28/04:00pm 17.8 WSW 13 18 1012.1 - 1.4 - Mostly clear 10 - - - -
28/03:30pm 18.1 W 13 18 1012.0 - 1.4 - Mostly clear 10 - - - -

Other Formats:

Comma delimited format used in spreadsheet applications
http://www.bom.gov.au/fwo/IDW60701/IDW60701.94802.axf

JavaScript Object Notation format (JSON) in row-major order
http://www.bom.gov.au/fwo/IDW60701/IDW60701.94802.json